Time;durP1;ratioP1;P1;durP2;ratioP2;P2;SDS_P1;SDS_P2;PMS_P1;PMS_P2;Temp;Humidity;BMP_temperature;BMP_pressure;BME280_temperature;BME280_humidity;BME280_pressure;Samples;Min_cycle;Max_cycle;Signal;HPM_P1;HPM_P2
2022/05/29 00:01:17;;;;;;;3.72;1.90;;;5.70;99.90;;;;;;5017543;28;20389;-60
2022/05/29 00:03:43;;;;;;;2.63;1.98;;;5.70;99.90;;;;;;5017354;28;20042;-60
2022/05/29 00:06:12;;;;;;;3.30;2.13;;;5.70;99.90;;;;;;5013991;28;20763;-60
2022/05/29 00:08:40;;;;;;;3.05;2.10;;;5.70;99.90;;;;;;5018739;28;20057;-61
2022/05/29 00:11:09;;;;;;;3.85;2.05;;;5.70;99.90;;;;;;5017267;28;20692;-61
2022/05/29 00:13:35;;;;;;;3.78;2.10;;;5.70;99.90;;;;;;5015332;28;20381;-61
2022/05/29 00:16:01;;;;;;;3.58;2.55;;;5.60;99.90;;;;;;5014579;28;20026;-60
2022/05/29 00:18:26;;;;;;;6.28;3.30;;;5.60;99.90;;;;;;5019045;28;20025;-61
2022/05/29 00:20:55;;;;;;;4.25;2.50;;;5.60;99.90;;;;;;5014376;28;20022;-62
2022/05/29 00:23:21;;;;;;;7.32;2.90;;;5.50;99.90;;;;;;5018438;28;20081;-61
2022/05/29 00:25:49;;;;;;;2.78;2.30;;;5.50;99.90;;;;;;5017290;28;20108;-61
2022/05/29 00:28:15;;;;;;;9.90;2.65;;;5.40;99.90;;;;;;5016443;28;20496;-61
2022/05/29 00:30:41;;;;;;;7.95;2.53;;;5.50;99.90;;;;;;5019823;28;20053;-60
2022/05/29 00:33:08;;;;;;;3.92;2.50;;;5.50;99.90;;;;;;5015979;28;20366;-61
2022/05/29 00:35:34;;;;;;;4.40;2.30;;;5.50;99.90;;;;;;5018310;28;20503;-61
2022/05/29 00:38:00;;;;;;;4.43;2.88;;;5.50;99.90;;;;;;5016610;28;20026;-61
2022/05/29 00:40:28;;;;;;;4.10;2.28;;;5.60;99.90;;;;;;5019593;28;20024;-61
2022/05/29 00:42:54;;;;;;;3.13;2.33;;;5.60;99.90;;;;;;5017483;28;20014;-61
2022/05/29 00:45:22;;;;;;;3.95;2.10;;;5.60;99.90;;;;;;5014048;28;20133;-61
2022/05/29 00:47:48;;;;;;;5.40;2.35;;;5.60;99.90;;;;;;5016771;28;20029;-60
2022/05/29 00:50:18;;;;;;;4.50;2.50;;;5.60;99.90;;;;;;5017826;28;20064;-60
2022/05/29 00:52:44;;;;;;;6.00;2.30;;;5.60;99.90;;;;;;5016211;28;20118;-62
2022/05/29 00:55:17;;;;;;;3.10;2.10;;;5.60;99.90;;;;;;5013396;28;20112;-60
2022/05/29 00:57:46;;;;;;;2.55;2.20;;;5.70;99.90;;;;;;5023023;28;20033;-60
2022/05/29 01:00:16;;;;;;;4.43;2.78;;;5.70;99.90;;;;;;5020550;28;20026;-60
2022/05/29 01:02:44;;;;;;;3.92;2.58;;;5.70;99.90;;;;;;5021751;28;20022;-61
2022/05/29 01:05:13;;;;;;;5.70;1.88;;;5.60;99.90;;;;;;5002156;28;20037;-61
2022/05/29 01:07:42;;;;;;;2.42;2.00;;;5.60;99.90;;;;;;5023240;28;20382;-60
2022/05/29 01:10:08;;;;;;;4.90;2.30;;;5.60;99.90;;;;;;5021979;28;20026;-61
2022/05/29 01:12:59;;;;;;;2.97;2.33;;;5.60;99.90;;;;;;5023455;28;20041;-60
2022/05/29 01:15:58;;;;;;;2.85;2.55;;;5.60;99.90;;;;;;5018927;28;20041;-60
2022/05/29 01:18:33;;;;;;;2.85;2.10;;;5.60;99.90;;;;;;4960680;28;20030;-60
2022/05/29 01:21:23;;;;;;;4.70;2.10;;;5.60;99.90;;;;;;5020394;28;20037;-61
2022/05/29 01:24:09;;;;;;;5.40;2.30;;;5.50;99.90;;;;;;5018087;28;20433;-61
2022/05/29 01:26:58;;;;;;;6.88;2.17;;;5.50;99.90;;;;;;5018587;28;20026;-61
2022/05/29 01:29:46;;;;;;;3.50;2.38;;;5.50;99.90;;;;;;5018391;28;20022;-61
2022/05/29 01:32:16;;;;;;;4.75;2.20;;;5.50;99.90;;;;;;5017250;28;20030;-61
2022/05/29 01:34:46;;;;;;;3.55;2.13;;;5.60;99.90;;;;;;5020532;28;21655;-61
2022/05/29 01:37:34;;;;;;;2.47;2.28;;;5.50;99.90;;;;;;5022045;28;20025;-61
2022/05/29 01:40:09;;;;;;;7.07;2.22;;;5.60;99.90;;;;;;5022458;28;20049;-61
2022/05/29 01:42:38;;;;;;;5.50;2.22;;;5.60;99.90;;;;;;5000247;28;20026;-61
2022/05/29 01:45:09;;;;;;;3.28;2.20;;;5.60;99.90;;;;;;5020540;28;20034;-60
2022/05/29 01:47:40;;;;;;;4.88;2.63;;;5.60;99.90;;;;;;5019700;28;20061;-61
2022/05/29 01:50:16;;;;;;;6.35;2.15;;;5.60;99.90;;;;;;5019717;28;20030;-60
2022/05/29 01:52:49;;;;;;;2.97;2.00;;;5.60;99.90;;;;;;5020821;28;20042;-60
2022/05/29 01:55:36;;;;;;;5.28;2.63;;;5.70;99.90;;;;;;5019733;28;20033;-61
2022/05/29 01:58:08;;;;;;;3.28;2.08;;;5.70;99.90;;;;;;5019356;28;20037;-61
2022/05/29 02:00:34;;;;;;;3.10;2.22;;;5.70;99.90;;;;;;5017311;28;20026;-61
2022/05/29 02:03:13;;;;;;;3.85;2.40;;;5.70;99.90;;;;;;5020599;28;20041;-61
2022/05/29 02:06:00;;;;;;;7.80;2.53;;;5.70;99.90;;;;;;5015476;28;20044;-62
2022/05/29 02:08:32;;;;;;;3.80;2.58;;;5.70;99.90;;;;;;5020648;28;20096;-61
2022/05/29 02:11:06;;;;;;;3.67;2.60;;;5.70;99.90;;;;;;5021867;28;20060;-61
2022/05/29 02:13:39;;;;;;;3.58;2.40;;;5.70;99.90;;;;;;5015160;28;20155;-61
2022/05/29 02:16:40;;;;;;;4.32;1.95;;;5.70;99.90;;;;;;5018044;28;20057;-62
2022/05/29 02:19:34;;;;;;;3.60;2.08;;;5.70;99.90;;;;;;5009190;28;20030;-62
2022/05/29 02:22:05;;;;;;;5.95;2.58;;;5.70;99.90;;;;;;5021923;28;20560;-62
2022/05/29 02:24:37;;;;;;;8.00;2.50;;;5.70;99.90;;;;;;5014744;28;21913;-61
2022/05/29 02:27:30;;;;;;;4.28;2.72;;;5.70;99.90;;;;;;5021320;28;20017;-62
2022/05/29 02:29:58;;;;;;;3.85;2.92;;;5.70;99.90;;;;;;5019806;28;20109;-61
2022/05/29 02:32:55;;;;;;;7.13;2.40;;;5.70;99.90;;;;;;5018523;28;20049;-61
2022/05/29 02:35:24;;;;;;;5.55;2.40;;;5.70;99.90;;;;;;5015924;28;20065;-61
2022/05/29 02:38:35;;;;;;;4.53;2.60;;;5.70;99.90;;;;;;5017901;28;20081;-61
2022/05/29 02:41:23;;;;;;;4.63;3.22;;;5.70;99.90;;;;;;4993928;28;20034;-61
2022/05/29 02:44:06;;;;;;;3.40;2.55;;;5.70;99.90;;;;;;5021082;28;20026;-62
2022/05/29 02:46:56;;;;;;;4.50;2.63;;;5.70;99.90;;;;;;5002536;28;20481;-61
2022/05/29 02:49:32;;;;;;;3.22;2.30;;;5.60;99.90;;;;;;5012546;28;20060;-61
2022/05/29 02:52:11;;;;;;;4.03;2.60;;;5.60;99.90;;;;;;5001534;28;20116;-61
2022/05/29 02:54:36;;;;;;;10.63;2.88;;;5.60;99.90;;;;;;5021866;28;20436;-61
2022/05/29 02:57:03;;;;;;;3.60;2.70;;;5.70;99.90;;;;;;5018117;28;20504;-60
2022/05/29 02:59:36;;;;;;;3.45;2.60;;;5.70;99.90;;;;;;5015698;28;20037;-61
2022/05/29 03:02:38;;;;;;;2.88;2.50;;;5.70;99.90;;;;;;5019169;28;20075;-61
2022/05/29 03:05:31;;;;;;;6.47;2.80;;;5.70;99.90;;;;;;5014885;28;20509;-62
2022/05/29 03:08:06;;;;;;;4.93;2.30;;;5.80;99.90;;;;;;5013022;28;20222;-62
2022/05/29 03:10:37;;;;;;;3.65;2.20;;;5.80;99.90;;;;;;5018062;28;20036;-61
2022/05/29 03:13:38;;;;;;;3.65;2.33;;;5.80;99.90;;;;;;5021992;28;20041;-61
2022/05/29 03:16:03;;;;;;;4.20;2.35;;;5.80;99.90;;;;;;4951723;28;20069;-61
2022/05/29 03:18:50;;;;;;;4.05;2.10;;;5.80;99.90;;;;;;5017662;28;20127;-60
2022/05/29 03:21:40;;;;;;;3.47;2.17;;;5.70;99.90;;;;;;5018654;28;20110;-61
2022/05/29 03:24:21;;;;;;;4.57;2.33;;;5.60;99.90;;;;;;5015596;28;20537;-61
2022/05/29 03:27:02;;;;;;;2.78;1.92;;;5.50;99.90;;;;;;5012429;28;20037;-61
2022/05/29 03:29:40;;;;;;;4.68;1.92;;;5.40;99.90;;;;;;5018876;28;20251;-61
2022/05/29 03:32:06;;;;;;;4.13;2.58;;;5.40;99.90;;;;;;5018844;28;20107;-60
2022/05/29 03:34:32;;;;;;;5.38;2.80;;;5.30;99.90;;;;;;5018363;28;20605;-60
2022/05/29 03:36:58;;;;;;;4.25;3.15;;;5.20;99.90;;;;;;5015536;28;20180;-60
2022/05/29 03:39:23;;;;;;;4.07;2.40;;;5.20;99.90;;;;;;5017545;28;20556;-60
2022/05/29 03:41:52;;;;;;;3.47;2.70;;;5.20;99.90;;;;;;5015880;28;20485;-61
2022/05/29 03:44:22;;;;;;;6.00;2.65;;;5.20;99.90;;;;;;5016379;28;20026;-61
2022/05/29 03:46:47;;;;;;;3.20;2.53;;;5.20;99.90;;;;;;5017672;28;20026;-61
2022/05/29 03:49:15;;;;;;;3.90;2.58;;;5.20;99.90;;;;;;5011972;28;20020;-61
2022/05/29 03:51:42;;;;;;;3.60;2.20;;;5.10;99.90;;;;;;5018944;28;20029;-62
2022/05/29 03:54:09;;;;;;;3.78;2.80;;;5.10;99.90;;;;;;5017393;28;20048;-62
2022/05/29 03:56:35;;;;;;;3.85;2.35;;;5.10;99.90;;;;;;5018498;28;20040;-61
2022/05/29 03:59:01;;;;;;;2.97;2.38;;;5.10;99.90;;;;;;5016514;28;20389;-60
2022/05/29 04:01:27;;;;;;;3.33;1.92;;;5.10;99.90;;;;;;5003166;28;20022;-60
2022/05/29 04:03:53;;;;;;;4.20;2.30;;;5.10;99.90;;;;;;5014702;28;20041;-61
2022/05/29 04:06:20;;;;;;;3.13;1.95;;;5.20;99.90;;;;;;5019955;28;20026;-60
2022/05/29 04:14:14;;;;;;;4.65;2.72;;;5.30;99.90;;;;;;5013409;28;20023;-61
2022/05/29 04:16:40;;;;;;;3.00;2.42;;;5.30;99.90;;;;;;5016712;28;20026;-60
2022/05/29 04:19:06;;;;;;;3.22;2.40;;;5.40;99.90;;;;;;5017360;28;20088;-61
2022/05/29 04:21:32;;;;;;;3.25;2.40;;;5.60;99.90;;;;;;5016821;28;20559;-61
2022/05/29 04:23:58;;;;;;;5.05;2.55;;;5.80;99.90;;;;;;5016493;28;20370;-61
2022/05/29 04:26:24;;;;;;;4.30;2.60;;;6.00;99.90;;;;;;5016728;28;20040;-61
2022/05/29 04:28:49;;;;;;;3.40;2.10;;;6.30;99.90;;;;;;5013349;28;20025;-61
2022/05/29 04:31:15;;;;;;;2.90;2.25;;;6.50;99.90;;;;;;5013192;28;20025;-62
2022/05/29 04:33:41;;;;;;;4.90;2.55;;;6.70;99.90;;;;;;5017993;28;20025;-60
2022/05/29 04:36:07;;;;;;;3.15;1.98;;;6.90;99.90;;;;;;5017177;28;20030;-61
2022/05/29 04:38:33;;;;;;;3.13;2.20;;;6.90;99.90;;;;;;5016609;28;20088;-61
2022/05/29 04:41:03;;;;;;;3.35;2.10;;;6.90;99.90;;;;;;5019049;28;20030;-61
2022/05/29 04:43:29;;;;;;;2.85;2.30;;;7.00;99.90;;;;;;5018682;28;20480;-61
2022/05/29 04:45:55;;;;;;;3.92;2.00;;;7.00;99.90;;;;;;5020571;28;20044;-61
2022/05/29 04:48:22;;;;;;;2.75;1.98;;;7.20;99.90;;;;;;5009524;28;20025;-60
2022/05/29 04:50:48;;;;;;;3.22;1.88;;;7.30;99.90;;;;;;5017281;28;20497;-61
2022/05/29 04:53:14;;;;;;;4.00;2.47;;;7.40;99.90;;;;;;5018512;28;20030;-60
2022/05/29 04:55:40;;;;;;;3.95;2.10;;;7.50;99.90;;;;;;5015730;28;20026;-60
2022/05/29 04:58:08;;;;;;;4.18;2.20;;;7.60;99.90;;;;;;5012964;28;20030;-61
2022/05/29 05:00:34;;;;;;;2.83;2.40;;;7.60;99.90;;;;;;5014943;28;20026;-62
2022/05/29 05:03:01;;;;;;;6.47;2.60;;;7.60;99.90;;;;;;5017354;28;20033;-62
2022/05/29 05:05:27;;;;;;;6.53;2.45;;;7.60;99.90;;;;;;5016793;28;20065;-61
2022/05/29 05:07:53;;;;;;;3.47;2.08;;;7.70;99.90;;;;;;5002767;28;20097;-61
2022/05/29 05:10:19;;;;;;;3.78;2.33;;;7.70;99.90;;;;;;5018758;28;20033;-61
2022/05/29 05:12:45;;;;;;;4.57;2.42;;;7.80;99.90;;;;;;5015282;28;20030;-60
2022/05/29 05:15:14;;;;;;;5.50;2.20;;;7.90;99.90;;;;;;5015057;28;20562;-61
2022/05/29 05:17:39;;;;;;;4.57;3.03;;;8.10;99.90;;;;;;5014996;28;20441;-62
2022/05/29 05:20:06;;;;;;;3.28;2.08;;;8.30;99.90;;;;;;5020258;28;20018;-61
2022/05/29 05:22:32;;;;;;;3.20;2.38;;;8.50;99.90;;;;;;5018603;28;20045;-61
2022/05/29 05:24:58;;;;;;;3.65;2.15;;;8.70;99.90;;;;;;5019536;28;20428;-62
2022/05/29 05:27:25;;;;;;;4.22;1.95;;;9.00;99.90;;;;;;5016977;28;20029;-62
2022/05/29 05:29:50;;;;;;;3.03;2.13;;;9.40;99.90;;;;;;5013786;28;20030;-61
2022/05/29 05:32:16;;;;;;;2.63;2.00;;;9.60;99.90;;;;;;5002200;28;20481;-62
2022/05/29 05:34:42;;;;;;;3.95;2.22;;;9.90;99.90;;;;;;5006909;28;20108;-62
2022/05/29 05:37:09;;;;;;;2.65;1.90;;;10.40;99.90;;;;;;5014024;28;20523;-62
2022/05/29 05:39:35;;;;;;;2.53;1.50;;;11.60;99.90;;;;;;5017622;28;20080;-62
2022/05/29 05:42:00;;;;;;;2.60;1.52;;;13.00;99.90;;;;;;5023589;28;20034;-62
2022/05/29 05:44:26;;;;;;;2.13;1.50;;;14.00;99.90;;;;;;5021164;28;20466;-62
2022/05/29 05:46:53;;;;;;;2.35;1.38;;;14.40;99.90;;;;;;5017389;28;20049;-62
2022/05/29 05:49:21;;;;;;;2.92;1.65;;;14.40;99.90;;;;;;5018499;28;20026;-61
2022/05/29 05:51:47;;;;;;;1.98;1.38;;;14.40;97.90;;;;;;5019689;28;20041;-61
2022/05/29 05:54:13;;;;;;;2.72;1.40;;;14.00;99.80;;;;;;5019777;28;20029;-62
2022/05/29 05:56:43;;;;;;;5.82;1.42;;;13.70;99.90;;;;;;5018684;28;20048;-64
2022/05/29 05:59:09;;;;;;;3.78;1.80;;;13.30;99.90;;;;;;5020945;28;20037;-62
2022/05/29 06:01:35;;;;;;;3.53;1.90;;;13.60;99.90;;;;;;5023160;28;20372;-62
2022/05/29 06:04:00;;;;;;;3.72;1.67;;;14.30;99.90;;;;;;5019381;28;20021;-62
2022/05/29 06:06:26;;;;;;;2.78;1.20;;;15.40;94.50;;;;;;5019145;28;20048;-62
2022/05/29 06:08:52;;;;;;;2.20;1.38;;;16.20;90.70;;;;;;5014562;28;20037;-62
2022/05/29 06:11:17;;;;;;;3.67;1.50;;;16.30;87.10;;;;;;5019475;28;20029;-64
2022/05/29 06:13:43;;;;;;;4.72;1.35;;;16.30;87.50;;;;;;5010659;28;20513;-62
2022/05/29 06:16:09;;;;;;;3.47;1.35;;;15.80;88.60;;;;;;5019145;28;20034;-62
2022/05/29 06:18:35;;;;;;;5.57;1.70;;;15.40;91.40;;;;;;5019117;28;20489;-62
2022/05/29 06:21:04;;;;;;;3.47;1.40;;;15.10;92.90;;;;;;5018881;28;20037;-62
2022/05/29 06:23:30;;;;;;;2.25;1.15;;;15.10;94.10;;;;;;5019642;28;20038;-62
2022/05/29 06:25:59;;;;;;;3.15;1.20;;;15.40;93.10;;;;;;5018917;28;20513;-64
2022/05/29 06:28:25;;;;;;;2.97;1.40;;;16.10;90.10;;;;;;5018057;28;20030;-63
2022/05/29 06:30:51;;;;;;;2.35;1.05;;;17.70;81.10;;;;;;5018362;28;20033;-63
2022/05/29 06:33:16;;;;;;;2.92;1.05;;;18.80;74.60;;;;;;5019090;28;20558;-64
2022/05/29 06:35:42;;;;;;;3.33;1.20;;;19.70;67.90;;;;;;5018997;28;20033;-63
2022/05/29 06:38:07;;;;;;;2.63;1.30;;;20.90;65.30;;;;;;5000296;28;20037;-62
2022/05/29 06:40:34;;;;;;;3.33;1.38;;;21.80;60.80;;;;;;5020388;28;20112;-65
2022/05/29 06:43:00;;;;;;;3.60;1.25;;;21.90;57.50;;;;;;5017024;28;20085;-63
2022/05/29 06:45:26;;;;;;;3.63;1.40;;;21.50;59.00;;;;;;5019270;28;20026;-64
2022/05/29 06:47:53;;;;;;;2.53;1.13;;;22.50;57.40;;;;;;4998295;28;20440;-63
2022/05/29 06:50:18;;;;;;;4.90;1.17;;;23.40;53.30;;;;;;5021119;28;20048;-63
2022/05/29 06:52:44;;;;;;;2.50;1.00;;;24.30;52.20;;;;;;5018172;28;20049;-63
2022/05/29 06:55:10;;;;;;;3.50;1.15;;;25.20;51.20;;;;;;5016463;28;20075;-64
2022/05/29 06:57:54;;;;;;;3.47;0.98;;;25.90;48.30;;;;;;4998141;28;20108;-66
2022/05/29 07:08:40;;;;;;;3.17;1.13;;;26.90;44.80;;;;;;5012691;28;20036;-64
2022/05/29 07:11:10;;;;;;;3.45;1.15;;;27.90;45.30;;;;;;4999930;28;20029;-64
2022/05/29 07:13:36;;;;;;;2.85;1.02;;;28.60;43.90;;;;;;5019868;28;20080;-64
2022/05/29 07:16:02;;;;;;;2.13;1.05;;;29.30;43.90;;;;;;5015528;28;20109;-65
2022/05/29 07:18:29;;;;;;;3.58;1.23;;;29.70;41.10;;;;;;5018521;28;20042;-64
2022/05/29 07:20:58;;;;;;;2.25;1.10;;;29.40;41.40;;;;;;5021717;28;20091;-63
2022/05/29 07:23:23;;;;;;;3.15;1.00;;;29.20;42.40;;;;;;5018815;28;20037;-64
2022/05/29 07:25:49;;;;;;;2.50;0.95;;;29.80;42.10;;;;;;5021629;28;20026;-65
2022/05/29 07:28:14;;;;;;;4.22;1.60;;;30.30;40.30;;;;;;5018388;28;20044;-65
2022/05/29 07:30:40;;;;;;;4.15;1.05;;;31.00;39.60;;;;;;5016167;28;20390;-66
2022/05/29 07:33:06;;;;;;;3.92;1.08;;;31.80;39.40;;;;;;5016996;28;20040;-65
2022/05/29 07:35:31;;;;;;;4.15;1.40;;;32.40;37.30;;;;;;5019755;28;20041;-65
2022/05/29 07:37:57;;;;;;;2.17;0.98;;;31.80;37.10;;;;;;5017060;28;20021;-64
2022/05/29 07:40:24;;;;;;;2.50;1.00;;;31.20;37.90;;;;;;5018573;28;20112;-64
2022/05/29 07:45:34;;;;;;;2.40;1.00;;;30.90;38.60;;;;;;5015362;28;20045;-65
2022/05/29 07:48:00;;;;;;;2.28;1.00;;;30.80;37.80;;;;;;5016374;28;20034;-64
2022/05/29 07:50:26;;;;;;;3.72;1.30;;;30.30;38.20;;;;;;5015705;28;20034;-65
2022/05/29 07:52:52;;;;;;;3.13;1.00;;;30.60;38.10;;;;;;5019717;28;20213;-64
2022/05/29 07:55:22;;;;;;;3.25;1.10;;;30.30;38.10;;;;;;5017422;28;20065;-64
2022/05/29 07:57:50;;;;;;;3.60;1.10;;;30.40;37.00;;;;;;5019768;28;20030;-65
2022/05/29 08:00:18;;;;;;;2.65;1.02;;;30.30;36.10;;;;;;5015792;28;20022;-64
2022/05/29 08:02:44;;;;;;;3.08;0.95;;;30.40;37.20;;;;;;5017122;28;20087;-65
2022/05/29 08:05:13;;;;;;;4.32;1.17;;;30.60;36.90;;;;;;5015806;28;20034;-64
2022/05/29 08:07:39;;;;;;;2.65;0.90;;;30.60;36.70;;;;;;5016573;28;20107;-66
2022/05/29 08:10:07;;;;;;;3.17;0.82;;;31.10;37.70;;;;;;5021432;28;20104;-66
2022/05/29 08:12:33;;;;;;;1.88;0.82;;;31.80;35.00;;;;;;5015514;28;20140;-64
2022/05/29 08:15:01;;;;;;;4.07;1.02;;;32.10;34.20;;;;;;5001542;28;20033;-64
2022/05/29 08:17:27;;;;;;;3.80;0.73;;;31.80;34.10;;;;;;5019832;28;20049;-67
2022/05/29 08:19:53;;;;;;;2.60;0.90;;;31.60;33.40;;;;;;5017187;28;20027;-65
2022/05/29 08:22:18;;;;;;;2.40;1.00;;;31.20;33.80;;;;;;5016692;28;20033;-64
2022/05/29 08:30:37;;;;;;;3.00;0.98;;;30.90;35.40;;;;;;5016282;28;20037;-64
2022/05/29 08:33:04;;;;;;;2.83;0.85;;;31.30;32.00;;;;;;5017156;28;20026;-63
2022/05/29 08:35:32;;;;;;;2.63;0.98;;;31.90;33.00;;;;;;5014555;28;20037;-65
2022/05/29 08:37:58;;;;;;;3.13;1.02;;;32.30;32.70;;;;;;5016766;28;20056;-64
2022/05/29 08:40:25;;;;;;;2.75;1.00;;;31.80;33.00;;;;;;4995385;28;20902;-66
2022/05/29 08:42:51;;;;;;;4.10;1.00;;;32.20;32.60;;;;;;5017849;28;20037;-65
2022/05/29 08:45:18;;;;;;;3.28;1.08;;;31.50;32.90;;;;;;5018063;28;20034;-64
2022/05/29 08:47:45;;;;;;;3.25;1.05;;;31.20;32.30;;;;;;4998666;28;20108;-64
2022/05/29 08:50:21;;;;;;;3.60;1.02;;;31.20;31.90;;;;;;5016522;28;20049;-65
2022/05/29 08:52:58;;;;;;;3.17;1.10;;;30.60;30.30;;;;;;5015416;28;20025;-66
2022/05/29 08:55:27;;;;;;;4.22;0.80;;;30.80;34.90;;;;;;5011090;28;20026;-64
2022/05/29 08:57:57;;;;;;;2.28;0.80;;;32.20;32.70;;;;;;5020377;28;20030;-64
2022/05/29 09:01:01;;;;;;;5.22;1.52;;;31.50;33.90;;;;;;5017172;28;20173;-63
2022/05/29 09:03:42;;;;;;;3.15;1.10;;;30.40;36.30;;;;;;5017285;28;20037;-63
2022/05/29 09:06:19;;;;;;;4.05;1.30;;;28.70;35.00;;;;;;5006240;28;20088;-65
2022/05/29 09:09:16;;;;;;;2.67;1.30;;;27.50;37.20;;;;;;5020458;28;20084;-63
2022/05/29 09:11:55;;;;;;;2.67;1.00;;;27.20;39.50;;;;;;4989183;28;20771;-65
2022/05/29 09:14:24;;;;;;;4.38;1.10;;;27.80;37.20;;;;;;5016907;28;20030;-63
2022/05/29 09:17:06;;;;;;;4.50;1.25;;;28.70;36.70;;;;;;5020396;28;20038;-64
2022/05/29 09:19:55;;;;;;;2.85;1.05;;;29.10;35.70;;;;;;5021204;28;20026;-64
2022/05/29 09:22:44;;;;;;;2.97;1.10;;;29.30;34.70;;;;;;5003857;28;20469;-63
2022/05/29 09:25:29;;;;;;;2.53;1.05;;;29.90;35.30;;;;;;4988143;28;20464;-63
2022/05/29 09:27:57;;;;;;;3.70;1.02;;;30.90;33.50;;;;;;5017283;28;20163;-65
2022/05/29 09:30:23;;;;;;;3.63;0.90;;;31.10;31.60;;;;;;5018023;28;20066;-64
2022/05/29 09:33:11;;;;;;;2.45;0.98;;;31.10;32.80;;;;;;5021374;28;20108;-64
2022/05/29 09:35:49;;;;;;;2.97;0.88;;;31.10;32.20;;;;;;5011016;28;20026;-65
2022/05/29 09:38:29;;;;;;;2.97;0.90;;;30.50;32.20;;;;;;5021135;28;20053;-65
2022/05/29 09:41:13;;;;;;;3.00;1.17;;;29.80;32.80;;;;;;5025468;28;20022;-65
2022/05/29 09:43:39;;;;;;;3.85;0.98;;;29.00;32.60;;;;;;5022212;28;20025;-64
2022/05/29 09:46:23;;;;;;;5.75;0.98;;;28.20;33.50;;;;;;5020768;28;20037;-63
2022/05/29 09:52:10;;;;;;;1.52;0.82;;;26.80;35.90;;;;;;5015190;28;20557;-64
2022/05/29 09:54:43;;;;;;;;;;;26.50;34.40;;;;;;5022651;28;20046;-63
2022/05/29 09:57:26;;;;;;;3.95;1.00;;;25.60;37.40;;;;;;5015810;28;19964;-63
2022/05/29 10:00:23;;;;;;;2.38;1.13;;;25.20;38.80;;;;;;5019188;28;20034;-62
2022/05/29 10:02:49;;;;;;;2.85;0.93;;;25.00;39.10;;;;;;5017210;28;20037;-64
2022/05/29 10:05:23;;;;;;;4.28;1.10;;;24.30;39.20;;;;;;5018366;28;20393;-63
2022/05/29 10:07:49;;;;;;;2.38;0.90;;;24.30;40.00;;;;;;5021211;28;20045;-63
2022/05/29 10:10:29;;;;;;;3.58;0.98;;;25.00;38.70;;;;;;5018092;28;20057;-63
2022/05/29 10:12:58;;;;;;;3.50;1.00;;;26.40;37.20;;;;;;4992329;28;20088;-63
2022/05/29 10:15:26;;;;;;;2.33;0.90;;;27.50;36.20;;;;;;5020004;28;20040;-63
2022/05/29 10:17:53;;;;;;;2.28;0.82;;;28.40;34.60;;;;;;5021455;28;20084;-63
2022/05/29 10:20:27;;;;;;;2.60;0.75;;;27.80;33.10;;;;;;5005399;28;20105;-63
2022/05/29 10:22:55;;;;;;;4.60;1.10;;;25.90;35.30;;;;;;5018478;28;20036;-62
2022/05/29 10:25:24;;;;;;;2.42;0.80;;;24.70;37.10;;;;;;5021728;28;20021;-62
2022/05/29 10:27:53;;;;;;;2.35;0.70;;;23.60;39.20;;;;;;5018159;28;20037;-63
2022/05/29 10:30:30;;;;;;;1.23;0.60;;;22.80;41.00;;;;;;5019473;28;20397;-62
2022/05/29 10:33:02;;;;;;;3.85;0.95;;;22.20;42.90;;;;;;5019513;28;20052;-62
2022/05/29 10:35:34;;;;;;;5.18;1.20;;;21.70;41.30;;;;;;5016124;28;20054;-62
2022/05/29 10:38:36;;;;;;;4.32;0.85;;;21.60;46.90;;;;;;5019379;28;20124;-63
2022/05/29 10:41:03;;;;;;;3.00;0.80;;;22.80;43.90;;;;;;4923728;29;20583;-64
2022/05/29 10:43:42;;;;;;;3.47;0.90;;;24.10;41.90;;;;;;5002793;28;20038;-61
2022/05/29 10:46:11;;;;;;;2.70;1.20;;;25.10;40.10;;;;;;5009574;28;20025;-63
2022/05/29 10:48:39;;;;;;;2.80;0.80;;;25.30;38.80;;;;;;5019658;28;20030;-61
2022/05/29 10:51:22;;;;;;;3.40;0.90;;;26.20;37.30;;;;;;5018490;28;20091;-61
2022/05/29 10:54:18;;;;;;;2.75;0.85;;;26.10;36.70;;;;;;5019781;28;20100;-61
2022/05/29 10:57:15;;;;;;;1.58;0.75;;;25.90;38.30;;;;;;5019088;28;20118;-60
2022/05/29 10:59:52;;;;;;;1.95;0.65;;;25.90;37.30;;;;;;5019606;28;20030;-63
2022/05/29 11:05:44;;;;;;;1.70;0.80;;;25.10;38.60;;;;;;5019290;28;20037;-61
2022/05/29 11:08:46;;;;;;;2.08;0.75;;;24.90;38.80;;;;;;5017441;28;20030;-61
2022/05/29 11:11:19;;;;;;;2.05;0.95;;;25.30;36.60;;;;;;5017187;28;20018;-62
2022/05/29 11:14:21;;;;;;;1.83;0.65;;;25.50;37.00;;;;;;5017017;28;20037;-62
2022/05/29 11:17:01;;;;;;;1.30;0.70;;;25.30;36.50;;;;;;4998653;28;20104;-61
2022/05/29 11:19:56;;;;;;;2.45;0.73;;;25.20;37.10;;;;;;5000455;28;20029;-63
2022/05/29 11:22:32;;;;;;;2.42;0.88;;;25.40;34.80;;;;;;5017860;28;20033;-62
2022/05/29 11:25:19;;;;;;;1.50;0.70;;;25.60;38.00;;;;;;5020897;28;20124;-61
2022/05/29 11:28:05;;;;;;;1.83;0.65;;;25.80;36.40;;;;;;5017640;28;20025;-61
2022/05/29 11:30:40;;;;;;;1.67;0.70;;;25.90;35.60;;;;;;5020234;28;20036;-61
2022/05/29 11:33:36;;;;;;;1.80;0.60;;;26.00;36.50;;;;;;5019183;28;20116;-61
2022/05/29 11:36:17;;;;;;;1.73;0.90;;;26.00;36.60;;;;;;5017385;28;20388;-62
2022/05/29 11:39:23;;;;;;;1.23;0.67;;;25.70;34.00;;;;;;5016394;28;20133;-61
2022/05/29 11:41:55;;;;;;;5.75;0.95;;;25.20;37.60;;;;;;5019868;28;20257;-61
2022/05/29 11:44:26;;;;;;;2.13;0.80;;;25.00;37.40;;;;;;5021265;28;20076;-63
2022/05/29 11:52:56;;;;;;;1.52;0.60;;;24.50;37.70;;;;;;5013579;28;20045;-61
2022/05/29 11:55:25;;;;;;;2.05;0.73;;;24.90;36.20;;;;;;5018740;28;20032;-63
2022/05/29 11:58:17;;;;;;;2.00;0.90;;;24.90;35.90;;;;;;5017302;28;20052;-61
2022/05/29 12:11:42;;;;;;;1.23;0.75;;;26.00;36.40;;;;;;5017744;28;20583;-62
2022/05/29 12:14:37;;;;;;;2.88;0.70;;;26.10;34.60;;;;;;5017533;28;20024;-62
2022/05/29 12:19:44;;;;;;;1.92;0.63;;;26.20;34.70;;;;;;5224079;23;20050;-90
2022/05/29 12:22:12;;;;;;;1.80;0.77;;;26.50;33.10;;;;;;4984187;28;20850;-89
2022/05/29 12:24:46;;;;;;;2.20;0.63;;;26.30;33.20;;;;;;4974248;28;20500;-89
2022/05/29 12:27:25;;;;;;;1.98;0.52;;;26.20;33.40;;;;;;4976556;28;20041;-89
2022/05/29 12:29:54;;;;;;;1.92;0.70;;;25.70;33.80;;;;;;5003972;28;20041;-90
2022/05/29 12:32:27;;;;;;;1.67;0.70;;;25.30;36.20;;;;;;5016665;28;20018;-91
2022/05/29 12:34:59;;;;;;;1.27;0.55;;;25.50;36.20;;;;;;5003027;28;20030;-91
2022/05/29 12:37:43;;;;;;;1.13;0.50;;;25.40;35.50;;;;;;5011251;28;20109;-89
2022/05/29 12:40:17;;;;;;;0.77;0.50;;;25.10;33.00;;;;;;5023589;28;20018;-91
2022/05/29 12:43:07;;;;;;;1.80;0.55;;;25.40;34.10;;;;;;5019040;28;20026;-91
2022/05/29 12:45:50;;;;;;;1.30;0.65;;;25.80;34.30;;;;;;5015024;28;20137;-90
2022/05/29 12:48:45;;;;;;;2.17;0.70;;;26.30;34.00;;;;;;5016980;28;20033;-92
2022/05/29 12:51:52;;;;;;;1.33;0.60;;;26.50;33.80;;;;;;4935726;28;20035;-91
2022/05/29 12:54:41;;;;;;;3.47;0.63;;;26.70;33.70;;;;;;5011918;28;20037;-89
2022/05/29 12:57:40;;;;;;;1.17;0.50;;;26.70;32.90;;;;;;5031234;28;20037;-91
2022/05/29 13:00:30;;;;;;;1.92;0.60;;;26.40;33.40;;;;;;5024928;28;20034;-89
2022/05/29 13:03:14;;;;;;;1.48;0.60;;;25.60;34.10;;;;;;5029088;28;20033;-90
2022/05/29 13:06:17;;;;;;;2.40;0.80;;;24.90;34.70;;;;;;5007805;28;20397;-90
2022/05/29 13:09:13;;;;;;;2.05;0.60;;;24.40;36.60;;;;;;5001704;28;20370;-91
2022/05/29 13:11:48;;;;;;;1.85;0.70;;;24.30;38.80;;;;;;5027995;28;20029;-91
2022/05/29 13:14:16;;;;;;;1.70;0.50;;;24.20;38.30;;;;;;5030002;28;20029;-93
2022/05/29 13:16:44;;;;;;;1.38;0.63;;;24.60;36.70;;;;;;5016943;28;20029;-90
2022/05/29 13:19:17;;;;;;;1.75;0.82;;;25.00;35.80;;;;;;5021319;28;20026;-91
2022/05/29 13:22:04;;;;;;;1.67;0.60;;;25.40;35.50;;;;;;5018509;28;20119;-90
2022/05/29 13:24:39;;;;;;;1.10;0.52;;;25.10;35.50;;;;;;5023113;28;20038;-90
2022/05/29 13:27:12;;;;;;;2.00;0.65;;;25.20;35.30;;;;;;5021285;28;20022;-91
2022/05/29 13:29:40;;;;;;;1.45;0.70;;;25.10;35.00;;;;;;5024290;28;20083;-91
2022/05/29 13:32:15;;;;;;;2.13;0.85;;;24.70;35.10;;;;;;5024749;28;20018;-90
2022/05/29 13:34:43;;;;;;;1.10;0.50;;;24.60;35.30;;;;;;5003559;28;20038;-91
2022/05/29 13:37:32;;;;;;;1.35;0.70;;;24.50;35.80;;;;;;5034033;28;20021;-91
2022/05/29 13:40:06;;;;;;;0.90;0.50;;;24.10;36.90;;;;;;5028998;28;20049;-91
2022/05/29 13:42:43;;;;;;;1.83;0.60;;;23.90;36.90;;;;;;5029485;28;20026;-91
2022/05/29 13:45:31;;;;;;;2.20;0.60;;;23.50;37.90;;;;;;5019854;28;20025;-89
2022/05/29 13:48:18;;;;;;;2.83;0.70;;;23.10;38.20;;;;;;4950180;28;20030;-89
2022/05/29 13:51:03;;;;;;;3.40;0.90;;;22.80;39.00;;;;;;5013625;28;20124;-90
2022/05/29 13:53:48;;;;;;;5.60;0.63;;;22.50;39.20;;;;;;5004819;28;20022;-91
2022/05/29 13:56:16;;;;;;;2.47;0.55;;;22.20;39.50;;;;;;5026395;28;20033;-92
2022/05/29 14:04:33;;;;;;;1.77;0.52;;;22.30;40.30;;;;;;5026424;28;20032;-91
2022/05/29 14:07:08;;;;;;;0.77;0.63;;;22.30;38.90;;;;;;5004715;28;20024;-91
2022/05/29 14:09:33;;;;;;;1.85;0.90;;;22.30;40.80;;;;;;5025746;28;20092;-92
2022/05/29 14:12:12;;;;;;;1.73;0.70;;;22.30;40.30;;;;;;5030935;28;20057;-91
2022/05/29 14:14:45;;;;;;;1.02;0.50;;;22.30;40.40;;;;;;5010292;28;20104;-91
2022/05/29 14:17:30;;;;;;;1.70;0.50;;;22.20;40.50;;;;;;5026624;28;20056;-92